Time;durP1;ratioP1;P1;durP2;ratioP2;P2;SDS_P1;SDS_P2;PMS_P1;PMS_P2;Temp;Humidity;BMP_temperature;BMP_pressure;BME280_temperature;BME280_humidity;BME280_pressure;Samples;Min_cycle;Max_cycle;Signal;HPM_P1;HPM_P2
2021/06/26 00:01:25;;;;;;;54.63;41.38;;;12.40;99.90;;;;;;5041527;28;20049;-69
2021/06/26 00:03:52;;;;;;;59.22;43.80;;;12.30;99.90;;;;;;5021151;28;20065;-69
2021/06/26 00:06:19;;;;;;;66.25;43.45;;;12.30;99.90;;;;;;5040730;28;20036;-71
2021/06/26 00:08:46;;;;;;;58.38;42.10;;;12.20;99.90;;;;;;5008433;28;20052;-70
2021/06/26 00:11:13;;;;;;;60.83;45.15;;;12.20;99.90;;;;;;5024918;28;20045;-71
2021/06/26 00:13:40;;;;;;;57.97;42.60;;;12.20;99.90;;;;;;5025815;28;20106;-71
2021/06/26 00:16:06;;;;;;;61.53;43.20;;;12.10;99.90;;;;;;5056784;28;20071;-69
2021/06/26 00:18:33;;;;;;;62.58;44.75;;;12.30;99.90;;;;;;5020332;28;20457;-71
2021/06/26 00:21:00;;;;;;;74.18;50.40;;;12.10;99.90;;;;;;5012366;28;20045;-69
2021/06/26 00:23:27;;;;;;;80.00;51.92;;;12.10;99.90;;;;;;5003459;28;20099;-71
2021/06/26 00:26:08;;;;;;;90.68;53.35;;;12.10;99.90;;;;;;5037926;28;20071;-71
2021/06/26 00:28:34;;;;;;;81.90;53.53;;;12.00;99.90;;;;;;5044522;28;20048;-70
2021/06/26 00:31:01;;;;;;;78.43;51.17;;;12.00;99.90;;;;;;5013302;28;20049;-70
2021/06/26 00:33:28;;;;;;;69.28;48.33;;;12.00;99.90;;;;;;5040597;28;20052;-70
2021/06/26 00:35:55;;;;;;;71.72;48.33;;;11.90;99.90;;;;;;5031291;28;20102;-70
2021/06/26 00:38:22;;;;;;;73.82;49.72;;;12.00;99.90;;;;;;5062871;28;20068;-70
2021/06/26 00:40:49;;;;;;;66.55;47.38;;;12.00;99.90;;;;;;5026368;28;20425;-68
2021/06/26 00:43:17;;;;;;;70.25;46.65;;;12.10;99.90;;;;;;5046433;28;20063;-70
2021/06/26 00:45:45;;;;;;;69.70;48.10;;;12.00;99.90;;;;;;5048457;28;20072;-71
2021/06/26 00:48:11;;;;;;;75.22;47.95;;;12.00;99.90;;;;;;5043113;28;20041;-71
2021/06/26 00:50:38;;;;;;;69.95;45.55;;;11.90;99.90;;;;;;5034303;28;20123;-71
2021/06/26 00:53:05;;;;;;;74.38;49.90;;;11.80;99.90;;;;;;5039458;28;20518;-69
2021/06/26 00:55:32;;;;;;;70.03;47.75;;;11.90;99.90;;;;;;5048527;28;20049;-72
2021/06/26 00:58:01;;;;;;;72.93;47.33;;;11.90;99.90;;;;;;5047858;28;20126;-70
2021/06/26 01:00:29;;;;;;;75.63;48.88;;;11.70;99.90;;;;;;5018699;28;20050;-70
2021/06/26 01:02:58;;;;;;;71.10;46.88;;;11.70;99.90;;;;;;5024659;28;20061;-71
2021/06/26 01:05:25;;;;;;;61.80;41.67;;;11.70;99.90;;;;;;5025023;28;20053;-70
2021/06/26 01:07:53;;;;;;;68.00;44.45;;;11.70;99.90;;;;;;5027675;28;20049;-70
2021/06/26 01:10:20;;;;;;;58.15;41.03;;;11.70;99.90;;;;;;5033400;28;20032;-72
2021/06/26 01:12:47;;;;;;;61.47;41.15;;;11.70;99.90;;;;;;5048486;28;20045;-71
2021/06/26 01:15:16;;;;;;;55.47;38.00;;;11.60;99.90;;;;;;5046156;28;20261;-70
2021/06/26 01:17:42;;;;;;;63.53;40.92;;;11.60;99.90;;;;;;5064287;28;20239;-71
2021/06/26 01:20:11;;;;;;;59.78;40.40;;;11.70;99.90;;;;;;5048511;28;20045;-72
2021/06/26 01:22:42;;;;;;;66.25;42.72;;;11.60;99.90;;;;;;5037773;28;20306;-70
2021/06/26 01:25:15;;;;;;;66.80;43.10;;;11.60;99.90;;;;;;5043997;28;20132;-71
2021/06/26 01:27:43;;;;;;;62.05;41.92;;;11.50;99.90;;;;;;5027924;28;20057;-71
2021/06/26 01:30:12;;;;;;;51.80;36.85;;;11.50;99.90;;;;;;5045641;28;20045;-70
2021/06/26 01:32:39;;;;;;;54.85;35.50;;;11.40;99.90;;;;;;5026546;28;20041;-71
2021/06/26 01:35:08;;;;;;;48.38;35.10;;;11.30;99.90;;;;;;5027114;28;20340;-70
2021/06/26 01:37:41;;;;;;;54.08;36.28;;;11.30;99.90;;;;;;5009727;28;20057;-70
2021/06/26 01:40:15;;;;;;;58.53;36.80;;;11.40;99.90;;;;;;5025160;28;20258;-70
2021/06/26 01:42:42;;;;;;;61.60;37.10;;;11.30;99.90;;;;;;5061078;28;20052;-70
2021/06/26 01:45:09;;;;;;;51.75;36.55;;;11.30;99.90;;;;;;5047368;28;20051;-69
2021/06/26 01:47:36;;;;;;;50.00;36.53;;;11.20;99.90;;;;;;5066217;28;20036;-70
2021/06/26 01:50:04;;;;;;;52.88;36.55;;;11.10;99.90;;;;;;5045162;28;20045;-71
2021/06/26 01:52:31;;;;;;;54.70;36.35;;;11.10;99.90;;;;;;5041161;28;20106;-70
2021/06/26 01:54:57;;;;;;;59.30;39.00;;;11.10;99.90;;;;;;5030651;28;20060;-69
2021/06/26 01:57:24;;;;;;;56.33;37.10;;;11.20;99.90;;;;;;5064049;28;20045;-69
2021/06/26 01:59:51;;;;;;;58.70;38.53;;;11.30;99.90;;;;;;5042132;28;20053;-71
2021/06/26 02:02:18;;;;;;;64.72;39.17;;;11.40;99.90;;;;;;5027315;28;20236;-70
2021/06/26 02:04:45;;;;;;;61.92;38.88;;;11.50;99.90;;;;;;5044509;28;20095;-70
2021/06/26 02:07:11;;;;;;;57.85;38.40;;;11.50;99.90;;;;;;5027573;28;20053;-71
2021/06/26 02:09:38;;;;;;;63.47;37.20;;;11.30;99.90;;;;;;5044471;28;20041;-70
2021/06/26 02:12:05;;;;;;;57.88;38.33;;;11.20;99.90;;;;;;5047876;28;20094;-71
2021/06/26 02:14:32;;;;;;;57.97;37.65;;;11.10;99.90;;;;;;5030323;28;20114;-71
2021/06/26 02:16:59;;;;;;;54.25;35.90;;;11.10;99.90;;;;;;5046877;28;20506;-70
2021/06/26 02:19:26;;;;;;;55.15;36.28;;;11.00;99.90;;;;;;5038628;28;20098;-69
2021/06/26 02:21:52;;;;;;;53.35;36.70;;;10.90;99.90;;;;;;5044544;28;20171;-71
2021/06/26 02:24:19;;;;;;;59.80;38.45;;;10.90;99.90;;;;;;5011523;28;20107;-71
2021/06/26 02:26:46;;;;;;;62.30;40.35;;;10.90;99.90;;;;;;5008954;28;20049;-69
2021/06/26 02:29:13;;;;;;;55.90;37.17;;;10.90;99.90;;;;;;5026493;28;20359;-71
2021/06/26 02:31:39;;;;;;;74.15;41.03;;;11.00;99.90;;;;;;5012103;28;20049;-71
2021/06/26 02:34:09;;;;;;;53.97;34.78;;;11.00;99.90;;;;;;5029359;28;20512;-70
2021/06/26 02:36:35;;;;;;;53.38;33.75;;;10.90;99.90;;;;;;5022622;28;20065;-70
2021/06/26 02:39:02;;;;;;;52.70;34.80;;;10.80;99.90;;;;;;5023443;28;20045;-69
2021/06/26 02:41:29;;;;;;;45.63;32.92;;;10.80;99.90;;;;;;5023055;28;20061;-71
2021/06/26 02:43:56;;;;;;;49.80;34.83;;;10.70;99.90;;;;;;5020207;28;20040;-70
2021/06/26 02:46:22;;;;;;;51.58;33.17;;;10.70;99.90;;;;;;5046219;28;20595;-71
2021/06/26 02:48:49;;;;;;;52.33;35.85;;;10.60;99.90;;;;;;5040953;28;20041;-71
2021/06/26 02:51:16;;;;;;;61.15;37.53;;;10.80;99.90;;;;;;5019082;28;20037;-71
2021/06/26 02:53:43;;;;;;;58.25;38.03;;;10.70;99.90;;;;;;5045474;28;20044;-69
2021/06/26 02:56:10;;;;;;;57.17;36.42;;;10.80;99.90;;;;;;5035521;28;20071;-69
2021/06/26 02:58:37;;;;;;;57.95;36.78;;;10.70;99.90;;;;;;5026256;28;20239;-70
2021/06/26 03:01:03;;;;;;;53.08;35.58;;;10.60;99.90;;;;;;5025013;28;20041;-70
2021/06/26 03:03:30;;;;;;;57.28;37.50;;;10.70;99.90;;;;;;5045679;28;20546;-70
2021/06/26 03:05:57;;;;;;;70.60;40.85;;;10.90;99.90;;;;;;5027441;28;20304;-70
2021/06/26 03:08:24;;;;;;;66.70;40.72;;;11.00;99.90;;;;;;5025899;28;20068;-71
2021/06/26 03:10:51;;;;;;;68.28;40.63;;;10.90;99.90;;;;;;5024762;28;20033;-71
2021/06/26 03:13:18;;;;;;;67.75;41.22;;;10.90;99.90;;;;;;5023969;28;20056;-68
2021/06/26 03:15:45;;;;;;;63.58;39.20;;;10.90;99.90;;;;;;5042814;28;20041;-69
2021/06/26 03:18:13;;;;;;;64.78;38.50;;;10.90;99.90;;;;;;5024763;28;20068;-69
2021/06/26 03:20:40;;;;;;;57.00;36.13;;;10.70;99.90;;;;;;5042899;28;20136;-69
2021/06/26 03:23:07;;;;;;;67.60;40.42;;;10.70;99.90;;;;;;5025611;28;20337;-71
2021/06/26 03:25:34;;;;;;;60.13;39.42;;;10.60;99.90;;;;;;5056123;28;20068;-69
2021/06/26 03:28:01;;;;;;;55.95;36.85;;;10.70;99.90;;;;;;5043877;28;20045;-71
2021/06/26 03:30:28;;;;;;;49.15;34.35;;;10.60;99.90;;;;;;5053108;28;20534;-70
2021/06/26 03:32:55;;;;;;;53.03;35.45;;;10.60;99.90;;;;;;5025243;28;20045;-70
2021/06/26 03:35:22;;;;;;;56.03;36.92;;;10.60;99.90;;;;;;5032357;28;20134;-70
2021/06/26 03:37:49;;;;;;;52.20;35.40;;;10.70;99.90;;;;;;5032245;28;20075;-70
2021/06/26 03:40:15;;;;;;;55.38;35.65;;;10.70;99.90;;;;;;5042454;28;20063;-71
2021/06/26 03:42:42;;;;;;;54.47;36.92;;;10.70;99.90;;;;;;5040355;28;20236;-71
2021/06/26 03:45:09;;;;;;;55.90;33.88;;;10.80;99.90;;;;;;5044801;28;20134;-71
2021/06/26 03:47:36;;;;;;;54.65;35.40;;;10.90;99.90;;;;;;5020864;28;20053;-69
2021/06/26 03:50:05;;;;;;;55.20;35.78;;;10.90;99.90;;;;;;5036515;28;20467;-71
2021/06/26 03:52:31;;;;;;;54.67;35.90;;;10.90;99.90;;;;;;5042894;28;20057;-71
2021/06/26 03:54:58;;;;;;;53.28;35.47;;;10.90;99.90;;;;;;5023136;28;20144;-70
2021/06/26 03:57:25;;;;;;;55.75;36.28;;;10.80;99.90;;;;;;5058959;28;20048;-71
2021/06/26 03:59:52;;;;;;;51.03;34.38;;;10.90;99.90;;;;;;5057683;28;20061;-72
2021/06/26 04:02:18;;;;;;;64.53;41.47;;;10.90;99.90;;;;;;5023403;28;20050;-72
2021/06/26 04:04:45;;;;;;;58.92;37.42;;;11.10;99.90;;;;;;5042175;28;20056;-72
2021/06/26 04:07:12;;;;;;;55.00;37.60;;;11.00;99.90;;;;;;5007140;28;20143;-72
2021/06/26 04:09:39;;;;;;;53.15;36.92;;;11.10;99.90;;;;;;5019466;28;20415;-69
2021/06/26 04:12:06;;;;;;;54.38;35.88;;;11.10;99.90;;;;;;5038349;28;20056;-71
2021/06/26 04:14:33;;;;;;;50.85;35.28;;;11.20;99.90;;;;;;5044543;28;20057;-68
2021/06/26 04:17:00;;;;;;;45.45;33.20;;;11.30;99.90;;;;;;5027369;28;20048;-73
2021/06/26 04:19:26;;;;;;;43.63;32.47;;;11.20;99.90;;;;;;5015685;28;20057;-71
2021/06/26 04:21:53;;;;;;;44.13;32.92;;;11.20;99.90;;;;;;5041910;28;20057;-69
2021/06/26 04:24:20;;;;;;;42.72;31.45;;;11.30;99.90;;;;;;5041285;28;20091;-69
2021/06/26 04:26:46;;;;;;;44.60;30.90;;;11.30;99.90;;;;;;5039344;28;20053;-71
2021/06/26 04:29:13;;;;;;;45.15;29.95;;;11.50;99.90;;;;;;5042542;28;20049;-69
2021/06/26 04:31:40;;;;;;;44.75;32.78;;;11.70;99.90;;;;;;5026043;28;20072;-70
2021/06/26 04:34:07;;;;;;;45.72;32.28;;;11.80;99.90;;;;;;5020752;28;20573;-71
2021/06/26 04:36:33;;;;;;;42.92;31.95;;;12.00;99.90;;;;;;5022168;28;20470;-72
2021/06/26 04:39:01;;;;;;;40.63;30.92;;;12.00;99.90;;;;;;5023164;28;20099;-69
2021/06/26 04:41:28;;;;;;;39.15;30.45;;;12.20;99.90;;;;;;5043161;28;20207;-70
2021/06/26 04:43:55;;;;;;;38.35;29.10;;;12.30;99.90;;;;;;5061472;28;20053;-71
2021/06/26 04:46:21;;;;;;;40.75;28.38;;;12.20;99.90;;;;;;5026531;28;20073;-70
2021/06/26 04:48:49;;;;;;;40.58;29.50;;;12.50;99.90;;;;;;5051794;28;20145;-70
2021/06/26 04:51:17;;;;;;;36.03;26.88;;;12.60;99.90;;;;;;5040124;28;20037;-71
2021/06/26 04:53:44;;;;;;;33.60;27.08;;;12.80;99.90;;;;;;5060421;28;20048;-71
2021/06/26 04:56:11;;;;;;;33.97;27.50;;;13.00;99.90;;;;;;5044238;28;20044;-70
2021/06/26 04:58:38;;;;;;;38.47;29.40;;;13.20;99.90;;;;;;5046652;28;20044;-70
2021/06/26 05:01:04;;;;;;;34.45;29.10;;;13.40;99.90;;;;;;5046234;28;20346;-71
2021/06/26 05:03:31;;;;;;;31.48;27.92;;;13.60;99.90;;;;;;5025381;28;20056;-70
2021/06/26 05:06:00;;;;;;;32.15;28.80;;;14.00;99.90;;;;;;5039776;28;20083;-71
2021/06/26 05:08:27;;;;;;;33.28;29.08;;;14.20;99.90;;;;;;5006976;28;20053;-70
2021/06/26 05:10:54;;;;;;;33.85;27.35;;;14.20;99.90;;;;;;5041278;28;20473;-71
2021/06/26 05:13:21;;;;;;;30.70;27.10;;;14.30;99.90;;;;;;5049059;28;20052;-69
2021/06/26 05:15:47;;;;;;;29.83;26.73;;;14.60;99.90;;;;;;5043630;28;20048;-71
2021/06/26 05:18:14;;;;;;;30.42;27.38;;;14.80;99.90;;;;;;5055861;28;20282;-71
2021/06/26 05:20:41;;;;;;;30.00;26.80;;;15.10;99.90;;;;;;5026508;28;20045;-71
2021/06/26 05:23:13;;;;;;;29.88;26.90;;;15.40;99.90;;;;;;5045339;28;20040;-71
2021/06/26 05:25:40;;;;;;;31.48;28.48;;;15.70;99.90;;;;;;5037194;28;20056;-71
2021/06/26 05:28:08;;;;;;;30.85;28.05;;;16.00;99.90;;;;;;5024591;28;20060;-69
2021/06/26 05:30:35;;;;;;;29.98;27.17;;;16.30;99.90;;;;;;5026505;28;20049;-69
2021/06/26 05:33:03;;;;;;;30.67;27.88;;;16.50;99.90;;;;;;5024578;28;20049;-71
2021/06/26 05:35:30;;;;;;;32.72;29.40;;;17.00;99.90;;;;;;5025658;28;20110;-71
2021/06/26 05:37:57;;;;;;;31.48;28.33;;;17.20;99.90;;;;;;5026759;28;20056;-71
2021/06/26 05:40:24;;;;;;;28.85;26.45;;;17.40;99.90;;;;;;5022922;28;20045;-71
2021/06/26 05:42:51;;;;;;;30.33;27.55;;;17.40;99.90;;;;;;5023422;28;20041;-71
2021/06/26 05:45:18;;;;;;;29.88;27.27;;;17.60;99.90;;;;;;5009230;28;20057;-69
2021/06/26 05:47:44;;;;;;;30.10;27.45;;;18.00;99.90;;;;;;5010482;28;20048;-71
2021/06/26 05:50:11;;;;;;;30.00;27.48;;;18.20;99.90;;;;;;5044093;28;20119;-72
2021/06/26 05:52:51;;;;;;;29.20;26.80;;;18.50;99.90;;;;;;5040670;28;20649;-71
2021/06/26 05:55:18;;;;;;;28.30;25.88;;;18.80;99.90;;;;;;5043981;28;20288;-69
2021/06/26 05:57:46;;;;;;;27.90;25.42;;;18.90;99.90;;;;;;5025047;28;20388;-70
2021/06/26 06:00:15;;;;;;;26.15;24.02;;;19.00;99.90;;;;;;5035358;28;20535;-71
2021/06/26 06:02:44;;;;;;;27.02;24.70;;;19.10;99.90;;;;;;5045021;28;20359;-71
2021/06/26 06:05:13;;;;;;;25.50;23.40;;;19.30;99.90;;;;;;5027322;28;20310;-72
2021/06/26 06:07:44;;;;;;;25.30;23.25;;;19.70;99.90;;;;;;5035532;28;20037;-71
2021/06/26 06:10:13;;;;;;;25.00;22.75;;;20.00;99.90;;;;;;5045029;28;20061;-74
2021/06/26 06:12:41;;;;;;;23.65;21.55;;;20.40;99.90;;;;;;5044571;28;20483;-72
2021/06/26 06:15:10;;;;;;;23.20;21.35;;;20.60;99.90;;;;;;5058535;28;20099;-72
2021/06/26 06:17:38;;;;;;;25.50;23.35;;;21.00;99.90;;;;;;5047315;28;20056;-70
2021/06/26 06:20:07;;;;;;;26.77;24.45;;;21.20;99.90;;;;;;5040843;28;20114;-70
2021/06/26 06:22:34;;;;;;;26.40;24.20;;;21.10;99.90;;;;;;5025849;28;20419;-71
2021/06/26 06:25:05;;;;;;;24.20;22.35;;;21.00;99.90;;;;;;5038252;28;20072;-69
2021/06/26 06:27:33;;;;;;;25.38;23.10;;;21.20;99.90;;;;;;5042895;28;20469;-71
2021/06/26 06:30:00;;;;;;;18.52;17.13;;;20.90;99.90;;;;;;5043891;28;20049;-71
2021/06/26 06:32:27;;;;;;;18.02;16.60;;;20.80;99.90;;;;;;5025561;28;20537;-70
2021/06/26 06:34:54;;;;;;;16.75;15.75;;;20.80;99.90;;;;;;5026461;28;20585;-70
2021/06/26 06:37:20;;;;;;;16.80;15.60;;;20.80;99.90;;;;;;5027335;28;20040;-71
2021/06/26 06:39:47;;;;;;;16.48;15.02;;;20.90;99.90;;;;;;5026485;28;20095;-71
2021/06/26 06:42:14;;;;;;;16.20;15.10;;;21.00;99.90;;;;;;5027258;28;20321;-70
2021/06/26 06:44:41;;;;;;;15.77;14.60;;;21.10;99.90;;;;;;5028467;28;20179;-71
2021/06/26 06:47:07;;;;;;;16.13;14.93;;;21.40;99.90;;;;;;5024285;28;20465;-72
2021/06/26 06:49:34;;;;;;;14.77;13.73;;;21.60;99.90;;;;;;5039496;28;20430;-71
2021/06/26 06:52:01;;;;;;;15.95;14.77;;;21.60;99.90;;;;;;5009329;28;20127;-71
2021/06/26 06:54:28;;;;;;;15.63;14.40;;;21.90;99.90;;;;;;5038856;28;20046;-71
2021/06/26 06:56:54;;;;;;;16.50;15.10;;;21.90;99.90;;;;;;5043642;28;20086;-70
2021/06/26 06:59:21;;;;;;;15.70;14.75;;;22.10;99.90;;;;;;5045247;28;20086;-72
2021/06/26 07:01:48;;;;;;;15.88;14.88;;;21.90;99.90;;;;;;5023380;28;20612;-71
2021/06/26 07:04:15;;;;;;;17.08;15.88;;;21.80;99.90;;;;;;5029606;28;20045;-71
2021/06/26 07:06:42;;;;;;;17.13;15.93;;;21.80;99.90;;;;;;5037619;28;20461;-70
2021/06/26 07:09:08;;;;;;;17.38;16.08;;;21.70;99.90;;;;;;5026337;28;20056;-70
2021/06/26 07:11:35;;;;;;;16.88;15.48;;;21.80;99.90;;;;;;5024875;28;20057;-72
2021/06/26 07:14:02;;;;;;;16.35;15.25;;;22.00;99.90;;;;;;4990134;28;20045;-72
2021/06/26 07:16:29;;;;;;;17.27;15.98;;;21.90;99.90;;;;;;5028465;28;20068;-70
2021/06/26 07:18:55;;;;;;;16.90;15.82;;;22.00;99.90;;;;;;5053124;28;20118;-70
2021/06/26 07:21:22;;;;;;;17.63;16.52;;;22.40;99.90;;;;;;5035701;28;20052;-71
2021/06/26 07:23:49;;;;;;;18.88;17.25;;;22.80;99.90;;;;;;5040957;28;20052;-69
2021/06/26 07:26:16;;;;;;;18.77;17.35;;;22.50;99.90;;;;;;5044915;28;20529;-71
2021/06/26 07:28:43;;;;;;;18.02;16.63;;;22.30;99.90;;;;;;5028158;28;20526;-71
2021/06/26 07:31:10;;;;;;;17.13;16.13;;;22.50;99.90;;;;;;5027831;28;20060;-70
2021/06/26 07:33:37;;;;;;;18.17;16.85;;;22.90;99.90;;;;;;5013297;28;20332;-72
2021/06/26 07:36:04;;;;;;;19.15;17.85;;;22.60;99.90;;;;;;5021241;28;20049;-70
2021/06/26 07:38:31;;;;;;;18.58;17.15;;;22.10;99.90;;;;;;5016582;28;20119;-71
2021/06/26 07:40:58;;;;;;;19.25;17.90;;;22.10;99.90;;;;;;5052934;28;20060;-71
2021/06/26 07:43:25;;;;;;;19.13;17.80;;;22.70;99.90;;;;;;5062292;28;20057;-72
2021/06/26 07:45:52;;;;;;;19.17;17.80;;;23.20;99.90;;;;;;5045271;28;20056;-70
2021/06/26 07:48:19;;;;;;;18.90;17.50;;;23.70;99.90;;;;;;5039004;28;20053;-72
2021/06/26 07:50:50;;;;;;;19.25;17.85;;;23.90;99.90;;;;;;5016685;28;20060;-71
2021/06/26 07:53:18;;;;;;;20.00;18.33;;;24.10;99.90;;;;;;5042794;28;20147;-72
2021/06/26 07:55:51;;;;;;;20.88;19.35;;;23.90;99.90;;;;;;5024284;28;20167;-70
2021/06/26 07:58:19;;;;;;;21.00;19.02;;;24.00;99.90;;;;;;5041786;28;20657;-70
2021/06/26 08:00:47;;;;;;;20.10;18.73;;;24.10;99.90;;;;;;5039907;28;20060;-71
2021/06/26 08:03:16;;;;;;;20.90;19.33;;;24.20;99.90;;;;;;5044692;28;20092;-73
2021/06/26 08:05:43;;;;;;;19.85;18.50;;;24.30;99.90;;;;;;5020987;28;20045;-72
2021/06/26 08:08:11;;;;;;;21.00;19.42;;;24.20;99.90;;;;;;5041672;28;20430;-72
2021/06/26 08:10:39;;;;;;;21.80;20.17;;;24.20;99.90;;;;;;5028864;28;20666;-72
2021/06/26 08:13:06;;;;;;;21.52;20.02;;;24.20;99.90;;;;;;5063577;28;20113;-73
2021/06/26 08:15:36;;;;;;;21.65;19.92;;;24.00;99.90;;;;;;5028359;28;20053;-72
2021/06/26 08:18:07;;;;;;;21.67;19.90;;;24.00;99.90;;;;;;5053197;28;20585;-72
2021/06/26 08:20:34;;;;;;;21.50;19.95;;;24.10;99.90;;;;;;5030545;28;20045;-73
2021/06/26 08:23:02;;;;;;;23.08;21.35;;;24.30;99.90;;;;;;5006239;28;20053;-72
2021/06/26 08:25:29;;;;;;;22.55;20.88;;;24.40;99.90;;;;;;4998816;28;20122;-71
2021/06/26 08:27:57;;;;;;;21.80;20.20;;;24.40;99.90;;;;;;5024417;28;20045;-73
2021/06/26 08:30:24;;;;;;;22.38;20.58;;;23.90;99.90;;;;;;5023496;28;20046;-72
2021/06/26 08:32:51;;;;;;;25.75;23.50;;;23.70;99.90;;;;;;5021118;28;20044;-72
2021/06/26 08:35:19;;;;;;;23.25;21.42;;;22.70;99.90;;;;;;5021349;28;20111;-71
2021/06/26 08:37:47;;;;;;;23.90;21.60;;;22.30;99.90;;;;;;5021704;28;20045;-72
2021/06/26 08:40:15;;;;;;;22.55;20.83;;;22.80;99.90;;;;;;5021737;28;20057;-72
2021/06/26 08:42:42;;;;;;;22.60;20.77;;;23.40;99.90;;;;;;5039521;28;20564;-72
2021/06/26 08:45:18;;;;;;;22.30;20.42;;;24.20;99.90;;;;;;5060688;28;20060;-71
2021/06/26 08:47:47;;;;;;;22.67;20.92;;;24.70;99.90;;;;;;5027907;28;20053;-72
2021/06/26 08:50:14;;;;;;;22.75;20.75;;;25.00;99.90;;;;;;5041665;28;20151;-72
2021/06/26 08:52:42;;;;;;;23.40;21.48;;;24.90;99.90;;;;;;5013751;28;20460;-72
2021/06/26 08:55:09;;;;;;;22.75;20.75;;;25.00;99.90;;;;;;5041135;28;20079;-73
2021/06/26 08:57:38;;;;;;;23.88;21.98;;;24.80;99.90;;;;;;5026048;28;20045;-73
2021/06/26 09:00:09;;;;;;;24.05;21.90;;;24.30;99.90;;;;;;5021131;28;20061;-73
2021/06/26 09:02:36;;;;;;;22.05;20.15;;;23.70;99.90;;;;;;5001888;28;20476;-72
2021/06/26 09:05:04;;;;;;;23.17;21.25;;;23.40;99.90;;;;;;5024734;28;20191;-73
2021/06/26 09:07:34;;;;;;;23.67;21.67;;;23.80;99.90;;;;;;5037651;28;20595;-73
2021/06/26 09:10:16;;;;;;;23.30;21.27;;;24.40;99.90;;;;;;5012268;28;20056;-74
2021/06/26 09:12:45;;;;;;;22.35;20.52;;;24.90;99.90;;;;;;5032828;28;20548;-73
2021/06/26 09:15:24;;;;;;;22.70;21.00;;;25.10;99.90;;;;;;5066265;28;20084;-73
2021/06/26 09:17:53;;;;;;;25.27;23.08;;;25.40;99.90;;;;;;5046428;28;20682;-73
2021/06/26 09:20:31;;;;;;;23.25;21.35;;;25.50;99.90;;;;;;5035354;28;20049;-73
2021/06/26 09:22:58;;;;;;;23.92;21.98;;;25.70;99.90;;;;;;5032565;28;20052;-73
2021/06/26 09:25:36;;;;;;;23.23;20.95;;;25.90;99.90;;;;;;5048281;28;20064;-73
2021/06/26 09:28:08;;;;;;;22.23;20.27;;;25.40;99.90;;;;;;5048354;28;20095;-73
2021/06/26 09:30:41;;;;;;;23.05;21.33;;;26.00;99.90;;;;;;5054513;28;20053;-73
2021/06/26 09:33:12;;;;;;;22.58;20.77;;;25.40;99.90;;;;;;5030905;28;20060;-74
2021/06/26 09:35:43;;;;;;;21.70;19.88;;;24.50;99.90;;;;;;5044504;28;20132;-73
2021/06/26 09:38:10;;;;;;;21.77;19.77;;;24.50;99.90;;;;;;5028769;28;20568;-74
2021/06/26 09:40:40;;;;;;;22.88;21.08;;;24.30;99.90;;;;;;5044739;28;20052;-74
2021/06/26 09:43:09;;;;;;;23.05;21.13;;;24.20;99.90;;;;;;5044959;28;20057;-73
2021/06/26 09:45:36;;;;;;;22.60;20.90;;;24.30;99.90;;;;;;5065796;28;20060;-73
2021/06/26 09:48:06;;;;;;;21.65;19.98;;;24.20;99.90;;;;;;5041383;28;20057;-73
2021/06/26 09:50:35;;;;;;;22.27;20.58;;;24.50;99.90;;;;;;5023826;28;20106;-74
2021/06/26 09:53:05;;;;;;;22.67;20.63;;;24.70;99.90;;;;;;5021030;28;20060;-74
2021/06/26 09:55:37;;;;;;;21.23;19.42;;;24.70;99.90;;;;;;5010485;28;20118;-74
2021/06/26 09:58:09;;;;;;;21.02;19.45;;;24.80;99.90;;;;;;5027417;28;20056;-73
2021/06/26 10:00:37;;;;;;;22.80;21.10;;;24.60;99.90;;;;;;5007752;28;20084;-74
2021/06/26 10:03:05;;;;;;;22.70;20.75;;;23.60;99.90;;;;;;5034432;28;20054;-72
2021/06/26 10:05:32;;;;;;;21.65;19.95;;;23.20;99.90;;;;;;5006502;28;20061;-73
2021/06/26 10:08:02;;;;;;;22.48;20.55;;;23.00;99.90;;;;;;5018356;28;20041;-73
2021/06/26 10:10:30;;;;;;;18.92;17.48;;;22.90;99.90;;;;;;5024139;28;20126;-73
2021/06/26 10:12:57;;;;;;;19.15;17.45;;;22.90;99.90;;;;;;5034506;28;20067;-73
2021/06/26 10:15:27;;;;;;;19.00;17.60;;;22.40;99.90;;;;;;5029371;28;20721;-73
2021/06/26 10:17:54;;;;;;;22.77;20.88;;;22.30;99.90;;;;;;5027566;28;20063;-73
2021/06/26 10:20:23;;;;;;;20.60;19.10;;;22.00;99.90;;;;;;5019946;28;20040;-73
2021/06/26 10:22:59;;;;;;;20.23;18.73;;;22.10;99.90;;;;;;5048797;28;20044;-73
2021/06/26 10:25:34;;;;;;;19.08;17.67;;;22.00;99.90;;;;;;5046658;28;20517;-73
2021/06/26 10:28:05;;;;;;;19.60;18.00;;;21.90;99.90;;;;;;5064490;28;20449;-73
2021/06/26 10:30:33;;;;;;;17.65;16.15;;;22.50;99.90;;;;;;5018345;28;20467;-74
2021/06/26 10:33:03;;;;;;;18.35;16.88;;;22.90;99.90;;;;;;5027283;28;20111;-74
2021/06/26 10:35:32;;;;;;;18.65;17.13;;;23.50;99.90;;;;;;5063492;28;20090;-74
2021/06/26 10:38:05;;;;;;;19.08;17.48;;;23.70;99.90;;;;;;5047156;28;20066;-74
2021/06/26 10:40:50;;;;;;;22.20;20.10;;;23.20;99.90;;;;;;5029815;28;20040;-73
2021/06/26 10:43:20;;;;;;;19.27;17.90;;;22.90;99.90;;;;;;5025991;28;20106;-74
2021/06/26 10:45:53;;;;;;;20.42;18.83;;;23.30;99.90;;;;;;5043559;28;20596;-74
2021/06/26 10:48:24;;;;;;;20.08;18.48;;;23.70;99.90;;;;;;5048341;28;20049;-72
2021/06/26 10:50:53;;;;;;;19.45;17.95;;;23.50;99.90;;;;;;5008807;28;20041;-73
2021/06/26 10:53:28;;;;;;;19.02;17.10;;;23.60;99.90;;;;;;5042918;28;20057;-73
2021/06/26 10:56:14;;;;;;;19.40;17.75;;;23.20;99.90;;;;;;5023265;28;20057;-72
2021/06/26 10:58:46;;;;;;;19.83;18.13;;;22.60;99.90;;;;;;5006771;28;20107;-72
2021/06/26 11:01:17;;;;;;;21.05;19.23;;;22.60;99.90;;;;;;5039321;28;20060;-71
2021/06/26 11:03:45;;;;;;;19.85;18.23;;;22.60;99.90;;;;;;5048973;28;20052;-74
2021/06/26 11:06:25;;;;;;;19.20;17.50;;;22.40;99.90;;;;;;5044482;28;20293;-73
2021/06/26 11:09:17;;;;;;;18.17;16.83;;;22.50;99.90;;;;;;5026473;28;20052;-74
2021/06/26 11:11:48;;;;;;;20.05;18.23;;;23.00;99.90;;;;;;5043563;28;20136;-72
2021/06/26 11:14:16;;;;;;;19.70;18.05;;;23.70;99.90;;;;;;5043415;28;20056;-74
2021/06/26 11:16:55;;;;;;;18.75;17.02;;;23.90;99.90;;;;;;5005679;28;20463;-72
2021/06/26 11:19:30;;;;;;;19.77;18.08;;;23.90;99.90;;;;;;5023517;28;20111;-74
2021/06/26 11:21:58;;;;;;;20.02;18.52;;;23.20;99.90;;;;;;5037184;28;20431;-74
2021/06/26 11:24:45;;;;;;;21.08;19.40;;;23.60;99.90;;;;;;5042408;28;20067;-73
2021/06/26 11:27:18;;;;;;;19.77;18.27;;;23.80;99.90;;;;;;5024318;28;20049;-73
2021/06/26 11:29:49;;;;;;;20.15;18.42;;;23.30;99.90;;;;;;5042632;28;20113;-73
2021/06/26 11:32:23;;;;;;;19.52;17.88;;;23.30;99.90;;;;;;5036708;28;20462;-73
2021/06/26 11:34:58;;;;;;;18.40;16.98;;;23.50;99.90;;;;;;5041859;28;20053;-73
2021/06/26 11:37:40;;;;;;;19.10;17.60;;;23.90;99.90;;;;;;4989486;28;20400;-74
2021/06/26 11:40:13;;;;;;;18.98;17.13;;;23.70;99.90;;;;;;5004847;28;20168;-75
2021/06/26 11:42:53;;;;;;;18.85;17.55;;;24.00;99.90;;;;;;5005296;28;20057;-72
2021/06/26 11:45:28;;;;;;;17.73;16.13;;;24.00;99.90;;;;;;5023864;28;20084;-74
2021/06/26 11:48:04;;;;;;;17.92;16.33;;;24.20;99.90;;;;;;5043077;28;20106;-74
2021/06/26 11:50:31;;;;;;;17.85;16.65;;;24.40;99.90;;;;;;5032803;28;20588;-74
2021/06/26 11:53:08;;;;;;;18.42;17.10;;;23.90;99.90;;;;;;5041713;28;20080;-74
2021/06/26 11:55:41;;;;;;;17.40;16.10;;;23.60;99.90;;;;;;5041365;28;20049;-72
2021/06/26 11:58:08;;;;;;;17.63;16.35;;;23.20;99.90;;;;;;5005653;28;20045;-74
2021/06/26 12:00:34;;;;;;;17.48;16.15;;;23.10;99.90;;;;;;4988836;28;20049;-73
2021/06/26 12:03:02;;;;;;;17.15;15.68;;;23.10;99.90;;;;;;5014698;28;20045;-73
2021/06/26 12:05:29;;;;;;;17.13;15.93;;;23.10;99.90;;;;;;5019369;28;20045;-73
2021/06/26 12:08:02;;;;;;;17.60;16.38;;;23.20;99.90;;;;;;5024617;28;20094;-73
2021/06/26 12:10:31;;;;;;;17.20;15.90;;;23.50;99.90;;;;;;5007931;28;20052;-72
2021/06/26 12:12:59;;;;;;;18.15;16.75;;;24.00;99.90;;;;;;5027800;28;20517;-74
2021/06/26 12:15:26;;;;;;;17.35;15.95;;;24.40;99.90;;;;;;5041162;28;20041;-73
2021/06/26 12:18:06;;;;;;;17.75;16.42;;;24.50;99.90;;;;;;5025064;28;20117;-73
2021/06/26 12:20:37;;;;;;;16.20;15.02;;;24.50;99.90;;;;;;5041855;28;20491;-73
2021/06/26 12:23:12;;;;;;;17.13;16.02;;;24.80;99.90;;;;;;5025711;28;20123;-73
2021/06/26 12:25:44;;;;;;;16.77;15.68;;;24.90;99.90;;;;;;4991386;28;20060;-72
2021/06/26 12:28:11;;;;;;;18.92;17.42;;;24.30;99.90;;;;;;5054364;28;20053;-72
2021/06/26 12:30:40;;;;;;;17.23;16.02;;;24.20;99.90;;;;;;5027337;28;20037;-71
2021/06/26 12:33:13;;;;;;;17.63;16.17;;;24.40;99.90;;;;;;5020289;28;20060;-72
2021/06/26 12:35:41;;;;;;;15.80;14.80;;;24.50;99.90;;;;;;5038881;28;20045;-74